createdAt,value
2019-02-21T00:01:38.097Z,57.77
2019-02-21T00:04:07.820Z,57.58
2019-02-21T00:06:37.319Z,57.95
2019-02-21T00:09:08.302Z,58.01
2019-02-21T00:11:37.728Z,58.04
2019-02-21T00:14:07.178Z,57.95
2019-02-21T00:16:36.659Z,57.87
2019-02-21T00:19:06.225Z,57.88
2019-02-21T00:21:35.615Z,57.99
2019-02-21T00:24:05.010Z,58.14
2019-02-21T00:26:34.531Z,58.22
2019-02-21T00:29:04.005Z,58.31
2019-02-21T00:31:33.398Z,58.38
2019-02-21T00:34:02.828Z,58.53
2019-02-21T00:36:32.316Z,57.74
2019-02-21T00:39:01.790Z,57.83
2019-02-21T00:41:31.215Z,57.46
2019-02-21T00:44:00.617Z,57.13
2019-02-21T00:46:30.100Z,56.83
2019-02-21T00:48:59.619Z,56.76
2019-02-21T00:51:29.012Z,56.25
2019-02-21T00:53:58.435Z,56.11
2019-02-21T00:56:27.960Z,56.07
2019-02-21T00:58:57.446Z,56.01
2019-02-21T01:01:27.086Z,55.97
2019-02-21T01:03:56.610Z,55.88
2019-02-21T01:06:25.997Z,56.07
2019-02-21T01:08:55.403Z,56.02
2019-02-21T01:11:24.949Z,56.06
2019-02-21T01:13:54.546Z,56.02
2019-02-21T01:16:23.937Z,56.12
2019-02-21T01:18:53.388Z,56.13
2019-02-21T01:21:22.860Z,56.21
2019-02-21T01:23:52.337Z,56.03
2019-02-21T01:26:21.779Z,56.17
2019-02-21T01:28:51.205Z,56.21
2019-02-21T01:31:20.704Z,56.15
2019-02-21T01:33:50.232Z,56.13
2019-02-21T01:36:19.642Z,56.15
2019-02-21T01:38:49.131Z,56.15
2019-02-21T01:41:18.661Z,56.17
2019-02-21T01:43:48.065Z,55.81
2019-02-21T01:46:17.564Z,55.63
2019-02-21T01:48:47.121Z,55.79
2019-02-21T01:51:16.519Z,55.84
2019-02-21T01:53:45.944Z,55.95
2019-02-21T01:56:15.471Z,55.92
2019-02-21T01:58:44.953Z,56.14
2019-02-21T02:01:14.360Z,56.32
2019-02-21T02:03:43.907Z,56.26
2019-02-21T02:06:13.404Z,56.40
2019-02-21T02:08:42.924Z,56.40
2019-02-21T02:11:12.343Z,56.49
2019-02-21T02:13:41.745Z,56.59
2019-02-21T02:16:11.224Z,56.59
2019-02-21T02:18:40.676Z,56.67
2019-02-21T02:21:10.165Z,56.82
2019-02-21T02:23:39.998Z,57.10
2019-02-21T02:26:09.538Z,57.29
2019-02-21T02:28:38.942Z,57.52
2019-02-21T02:31:21.579Z,58.04
2019-02-21T02:33:39.759Z,58.18
2019-02-21T02:36:09.295Z,58.61
2019-02-21T02:38:38.729Z,58.62
2019-02-21T02:41:08.366Z,59.10
2019-02-21T02:43:38.057Z,59.27
2019-02-21T02:46:07.431Z,59.38
2019-02-21T02:48:36.876Z,59.71
2019-02-21T02:51:06.359Z,59.90
2019-02-21T02:53:35.813Z,60.09
2019-02-21T02:56:05.475Z,60.12
2019-02-21T02:58:34.865Z,60.14
2019-02-21T03:01:04.522Z,60.28
2019-02-21T03:03:34.018Z,60.07
2019-02-21T03:06:03.408Z,59.84
2019-02-21T03:08:32.807Z,59.78
2019-02-21T03:11:02.404Z,59.46
2019-02-21T03:13:31.882Z,59.44
2019-02-21T03:16:01.284Z,58.88
2019-02-21T03:18:30.814Z,58.37
2019-02-21T03:21:00.290Z,58.50
2019-02-21T03:23:29.780Z,58.36
2019-02-21T03:25:59.383Z,58.19
2019-02-21T03:28:28.910Z,58.38
2019-02-21T03:30:58.425Z,58.27
2019-02-21T03:33:27.969Z,58.20
2019-02-21T03:35:57.407Z,58.49
2019-02-21T03:38:26.866Z,58.72
2019-02-21T03:40:56.290Z,58.96
2019-02-21T03:43:25.785Z,58.78
2019-02-21T03:45:55.283Z,59.00
2019-02-21T03:48:25.010Z,59.21
2019-02-21T03:50:54.443Z,58.85
2019-02-21T03:53:23.971Z,58.75
2019-02-21T03:55:53.958Z,58.54
2019-02-21T03:58:23.448Z,58.60
2019-02-21T04:00:52.891Z,58.90
2019-02-21T04:03:22.318Z,59.25
2019-02-21T04:05:51.818Z,59.53
2019-02-21T04:08:21.332Z,59.80
2019-02-21T04:10:50.762Z,60.11
2019-02-21T04:13:20.236Z,60.24
2019-02-21T04:15:49.724Z,60.58
2019-02-21T04:18:19.169Z,61.00
2019-02-21T04:20:48.655Z,61.33
2019-02-21T04:23:18.124Z,61.62
2019-02-21T04:25:47.762Z,62.04
2019-02-21T04:28:18.355Z,61.81
2019-02-21T04:30:47.840Z,62.25
2019-02-21T04:33:17.353Z,62.79
2019-02-21T04:35:46.760Z,63.04
2019-02-21T04:38:16.289Z,63.22
2019-02-21T04:40:45.830Z,63.46
2019-02-21T04:43:15.324Z,63.95
2019-02-21T04:45:44.747Z,64.21
2019-02-21T04:48:14.423Z,64.19
2019-02-21T04:50:43.925Z,64.53
2019-02-21T04:53:13.402Z,64.75
2019-02-21T04:55:42.881Z,64.88
2019-02-21T04:58:12.378Z,65.08
2019-02-21T05:00:41.838Z,65.27
2019-02-21T05:03:11.299Z,65.28
2019-02-21T05:05:40.844Z,65.62
2019-02-21T05:08:10.320Z,65.45
2019-02-21T05:10:39.754Z,65.22
2019-02-21T05:13:09.119Z,65.30
2019-02-21T05:15:38.600Z,65.27
2019-02-21T05:18:08.108Z,65.22
2019-02-21T05:20:37.789Z,64.94
2019-02-21T05:23:07.279Z,64.85
2019-02-21T05:25:36.805Z,64.85
2019-02-21T05:28:25.957Z,64.96
2019-02-21T05:30:58.529Z,64.73
2019-02-21T05:33:46.839Z,64.93
2019-02-21T05:36:34.006Z,64.94
2019-02-21T05:39:20.867Z,65.31
2019-02-21T05:42:12.231Z,65.55
2019-02-21T05:44:49.833Z,65.96
2019-02-21T05:47:50.038Z,66.19
2019-02-21T05:50:40.760Z,66.11
2019-02-21T05:53:19.058Z,66.15
2019-02-21T05:56:01.937Z,65.68
2019-02-21T05:58:50.286Z,65.60
2019-02-21T06:01:47.698Z,65.29
2019-02-21T06:04:25.044Z,65.26
2019-02-21T06:07:09.919Z,64.69
2019-02-21T06:09:48.613Z,64.32
2019-02-21T06:12:33.232Z,64.19
2019-02-21T06:15:10.025Z,64.11
2019-02-21T06:18:04.259Z,63.75
2019-02-21T06:20:52.808Z,62.97
2019-02-21T06:23:43.818Z,62.40
2019-02-21T06:26:24.208Z,62.10
2019-02-21T06:29:03.492Z,61.74
2019-02-21T06:31:33.210Z,61.47
2019-02-21T06:34:02.702Z,61.12
2019-02-21T06:36:32.127Z,60.85
2019-02-21T06:39:01.682Z,60.37
2019-02-21T06:41:31.180Z,60.43
2019-02-21T06:44:02.053Z,59.76
2019-02-21T06:46:31.493Z,59.41
2019-02-21T06:49:00.916Z,58.96
2019-02-21T06:51:30.436Z,58.81
2019-02-21T06:53:59.974Z,58.54
2019-02-21T06:56:29.382Z,58.27
2019-02-21T06:58:58.827Z,58.06
2019-02-21T07:01:29.570Z,57.30
2019-02-21T07:04:01.751Z,57.33
2019-02-21T07:06:32.190Z,57.14
2019-02-21T07:09:01.906Z,56.68
2019-02-21T07:11:31.324Z,56.69
2019-02-21T07:14:00.777Z,56.26
2019-02-21T07:16:30.514Z,55.59
2019-02-21T07:19:00.037Z,55.57
2019-02-21T07:21:29.452Z,54.77
2019-02-21T07:23:59.062Z,54.30
2019-02-21T07:26:28.606Z,53.41
2019-02-21T07:28:58.423Z,52.37
2019-02-21T07:31:29.249Z,51.89
2019-02-21T07:34:01.560Z,51.17
2019-02-21T07:36:30.313Z,50.58
2019-02-21T07:39:13.832Z,50.53
2019-02-21T07:41:31.009Z,50.69
2019-02-21T07:44:11.356Z,50.67
2019-02-21T07:46:32.458Z,50.51
2019-02-21T07:49:02.029Z,49.39
2019-02-21T07:51:31.540Z,49.18
2019-02-21T07:54:01.071Z,48.64
2019-02-21T07:56:41.181Z,48.96
2019-02-21T07:59:01.638Z,48.87
2019-02-21T08:01:31.263Z,48.91
2019-02-21T08:04:00.801Z,48.19
2019-02-21T08:06:30.215Z,47.71
2019-02-21T08:09:00.020Z,47.75
2019-02-21T08:11:29.500Z,47.48
2019-02-21T08:14:01.273Z,47.14
2019-02-21T08:16:31.024Z,46.37
2019-02-21T08:19:00.456Z,45.22
2019-02-21T08:21:30.269Z,43.83
2019-02-21T08:23:59.821Z,44.37
2019-02-21T08:26:29.651Z,44.23
2019-02-21T08:28:59.103Z,44.77
2019-02-21T08:31:28.624Z,45.07
2019-02-21T08:34:05.971Z,45.21
2019-02-21T08:36:35.587Z,45.00
2019-02-21T08:39:06.223Z,44.93
2019-02-21T08:41:35.720Z,45.26
2019-02-21T08:44:05.374Z,44.86
2019-02-21T08:46:34.762Z,44.75
2019-02-21T08:49:04.233Z,44.73
2019-02-21T08:51:33.913Z,44.07
2019-02-21T08:54:05.548Z,43.56
2019-02-21T08:56:34.518Z,43.71
2019-02-21T08:59:04.162Z,43.70
2019-02-21T09:01:33.668Z,42.94
2019-02-21T09:04:10.547Z,43.01
2019-02-21T09:06:34.597Z,42.41
2019-02-21T09:09:04.701Z,42.89
2019-02-21T09:11:34.104Z,42.39
2019-02-21T09:14:03.608Z,42.48
2019-02-21T09:16:34.355Z,40.89
2019-02-21T09:19:03.935Z,40.63
2019-02-21T09:21:33.542Z,40.56
2019-02-21T09:24:03.001Z,40.24
2019-02-21T09:26:34.660Z,39.81
2019-02-21T09:29:03.822Z,40.10
2019-02-21T09:31:33.213Z,40.23
2019-02-21T09:34:02.794Z,39.45
2019-02-21T09:36:32.327Z,39.96
2019-02-21T09:39:01.841Z,38.58
2019-02-21T09:41:31.251Z,39.24
2019-02-21T09:44:00.950Z,38.97
2019-02-21T09:46:30.362Z,38.72
2019-02-21T09:48:59.763Z,37.00
2019-02-21T09:51:29.316Z,37.70
2019-02-21T09:53:58.795Z,38.22
2019-02-21T09:56:30.745Z,35.54
2019-02-21T09:58:59.530Z,35.96
2019-02-21T10:01:29.021Z,36.40
2019-02-21T10:03:58.567Z,36.93
2019-02-21T10:06:28.144Z,35.54
2019-02-21T10:08:57.563Z,35.54
2019-02-21T10:11:27.056Z,35.90
2019-02-21T10:13:56.611Z,35.49
2019-02-21T10:16:25.994Z,35.99
2019-02-21T10:18:55.480Z,36.24
2019-02-21T10:21:25.206Z,35.69
2019-02-21T10:23:56.619Z,34.82
2019-02-21T10:26:25.851Z,34.98
2019-02-21T10:28:55.432Z,35.35
2019-02-21T10:31:24.902Z,35.21
2019-02-21T10:33:54.368Z,35.19
2019-02-21T10:36:23.915Z,34.70
2019-02-21T10:38:53.376Z,34.04
2019-02-21T10:41:22.779Z,34.34
2019-02-21T10:43:52.261Z,34.54
2019-02-21T10:46:21.754Z,34.51
2019-02-21T10:48:52.161Z,34.80
2019-02-21T10:51:21.612Z,34.67
2019-02-21T10:53:51.032Z,34.52
2019-02-21T10:56:20.625Z,34.56
2019-02-21T10:58:50.307Z,34.85
2019-02-21T11:01:19.723Z,34.63
2019-02-21T11:03:49.249Z,34.04
2019-02-21T11:06:18.777Z,34.33
2019-02-21T11:08:48.179Z,34.45
2019-02-21T11:11:17.701Z,34.12
2019-02-21T11:13:47.318Z,33.95
2019-02-21T11:16:16.707Z,33.60
2019-02-21T11:18:46.123Z,32.95
2019-02-21T11:21:15.704Z,33.38
2019-02-21T11:23:45.181Z,33.42
2019-02-21T11:26:15.115Z,32.60
2019-02-21T11:28:47.180Z,32.52
2019-02-21T11:31:16.121Z,32.31
2019-02-21T11:33:45.595Z,32.29
2019-02-21T11:36:15.111Z,32.50
2019-02-21T11:38:44.646Z,32.10
2019-02-21T11:41:14.239Z,31.77
2019-02-21T11:43:43.655Z,31.92
2019-02-21T11:46:13.235Z,31.27
2019-02-21T11:48:42.712Z,30.10
2019-02-21T11:51:12.610Z,29.59
2019-02-21T11:53:42.026Z,29.41
2019-02-21T11:56:11.527Z,30.16
2019-02-21T11:58:41.223Z,29.23
2019-02-21T12:01:12.839Z,29.47
2019-02-21T12:03:42.265Z,29.34
2019-02-21T12:06:12.141Z,29.51
2019-02-21T12:08:41.608Z,30.09
2019-02-21T12:11:11.156Z,29.88
2019-02-21T12:13:40.904Z,30.00
2019-02-21T12:16:10.609Z,30.00
2019-02-21T12:18:40.526Z,28.77
2019-02-21T12:21:09.991Z,28.86
2019-02-21T12:23:39.721Z,29.11
2019-02-21T12:26:09.143Z,29.49
2019-02-21T12:28:38.705Z,29.57
2019-02-21T12:31:08.252Z,29.13
2019-02-21T12:33:38.102Z,29.58
2019-02-21T12:36:07.931Z,29.29
2019-02-21T12:38:37.377Z,29.62
2019-02-21T12:41:06.946Z,29.74
2019-02-21T12:43:36.506Z,29.86
2019-02-21T12:46:05.960Z,29.78
2019-02-21T12:48:35.415Z,29.93
2019-02-21T12:51:05.491Z,30.30
2019-02-21T12:53:35.090Z,30.28
2019-02-21T12:56:04.507Z,29.83
2019-02-21T12:58:33.963Z,29.20
2019-02-21T13:01:03.473Z,29.15
2019-02-21T13:03:33.741Z,29.21
2019-02-21T13:06:04.748Z,29.28
2019-02-21T13:08:34.411Z,29.03
2019-02-21T13:11:03.829Z,29.36
2019-02-21T13:13:37.621Z,29.49
2019-02-21T13:16:07.118Z,29.50
2019-02-21T13:18:36.618Z,28.82
2019-02-21T13:21:06.186Z,28.29
2019-02-21T13:23:35.599Z,28.48
2019-02-21T13:26:05.486Z,28.05
2019-02-21T13:28:35.027Z,27.77
2019-02-21T13:31:04.426Z,27.96
2019-02-21T13:33:34.202Z,27.64
2019-02-21T13:36:05.159Z,27.98
2019-02-21T13:38:34.633Z,28.17
2019-02-21T13:41:04.028Z,28.35
2019-02-21T13:43:33.495Z,28.40
2019-02-21T13:46:03.043Z,28.63
2019-02-21T13:48:32.524Z,28.62
2019-02-21T13:51:02.155Z,28.45
2019-02-21T13:53:31.536Z,28.63
2019-02-21T13:56:01.070Z,29.05
2019-02-21T13:58:30.762Z,28.78
2019-02-21T14:01:00.159Z,28.15
2019-02-21T14:03:29.597Z,28.36
2019-02-21T14:06:03.520Z,28.26
2019-02-21T14:08:30.351Z,28.36
2019-02-21T14:11:00.002Z,28.31
2019-02-21T14:13:29.453Z,28.18
2019-02-21T14:15:59.145Z,28.08
2019-02-21T14:18:28.652Z,28.08
2019-02-21T14:20:58.124Z,28.39
2019-02-21T14:23:28.164Z,28.76
2019-02-21T14:25:58.081Z,29.10
2019-02-21T14:28:27.591Z,29.22
2019-02-21T14:30:57.107Z,29.44
2019-02-21T14:33:26.589Z,28.86
2019-02-21T14:35:56.014Z,28.92
2019-02-21T14:38:28.138Z,29.07
2019-02-21T14:40:58.113Z,29.42
2019-02-21T14:43:27.621Z,29.68
2019-02-21T14:45:57.039Z,27.96
2019-02-21T14:48:26.903Z,27.87
2019-02-21T14:50:56.684Z,27.93
2019-02-21T14:53:26.150Z,28.49
2019-02-21T14:55:55.565Z,28.77
2019-02-21T14:58:25.007Z,28.90
2019-02-21T15:00:54.489Z,29.01
2019-02-21T15:03:23.945Z,28.92
2019-02-21T15:05:53.631Z,28.90
2019-02-21T15:08:23.144Z,29.09
2019-02-21T15:10:53.559Z,29.72
2019-02-21T15:13:25.534Z,29.77
2019-02-21T15:15:56.624Z,30.19
2019-02-21T15:18:26.252Z,30.26
2019-02-21T15:20:55.640Z,30.61
2019-02-21T15:23:25.080Z,30.89
2019-02-21T15:25:54.638Z,30.96
2019-02-21T15:28:24.127Z,31.19
2019-02-21T15:30:53.536Z,31.29
2019-02-21T15:33:23.058Z,31.65
2019-02-21T15:35:52.701Z,31.96
2019-02-21T15:38:22.293Z,31.71
2019-02-21T15:40:54.090Z,31.82
2019-02-21T15:43:23.542Z,32.01
2019-02-21T15:45:52.944Z,32.38
2019-02-21T15:48:22.496Z,32.19
2019-02-21T15:50:51.977Z,32.19
2019-02-21T15:53:21.481Z,32.21
2019-02-21T15:55:51.114Z,32.81
2019-02-21T15:58:20.564Z,32.99
2019-02-21T16:00:50.148Z,33.21
2019-02-21T16:03:19.818Z,33.21
2019-02-21T16:05:49.361Z,33.52
2019-02-21T16:08:18.793Z,33.85
2019-02-21T16:10:48.507Z,34.48
2019-02-21T16:13:18.146Z,34.39
2019-02-21T16:15:47.714Z,34.65
2019-02-21T16:18:17.201Z,34.79
2019-02-21T16:20:46.653Z,35.13
2019-02-21T16:23:16.079Z,35.46
2019-02-21T16:25:45.768Z,36.00
2019-02-21T16:28:15.225Z,36.64
2019-02-21T16:30:44.633Z,37.18
2019-02-21T16:33:14.094Z,37.43
2019-02-21T16:35:43.602Z,37.72
2019-02-21T16:38:13.043Z,38.25
2019-02-21T16:40:42.467Z,38.12
2019-02-21T16:43:11.933Z,38.68
2019-02-21T16:45:46.279Z,38.68
2019-02-21T16:48:12.592Z,39.02
2019-02-21T16:50:41.963Z,39.36
2019-02-21T16:53:11.417Z,39.90
2019-02-21T16:55:40.953Z,39.81
2019-02-21T16:58:10.373Z,40.10
2019-02-21T17:00:51.318Z,40.76
2019-02-21T17:03:11.018Z,41.29
2019-02-21T17:05:40.441Z,41.43
2019-02-21T17:08:09.892Z,41.61
2019-02-21T17:10:39.440Z,41.61
2019-02-21T17:13:08.904Z,41.74
2019-02-21T17:15:38.294Z,41.87
2019-02-21T17:18:07.915Z,42.10
2019-02-21T17:20:37.412Z,42.22
2019-02-21T17:23:06.855Z,42.01
2019-02-21T17:25:36.455Z,42.09
2019-02-21T17:28:05.884Z,42.27
2019-02-21T17:30:35.388Z,42.15
2019-02-21T17:33:05.027Z,42.43
2019-02-21T17:35:34.438Z,42.92
2019-02-21T17:38:03.888Z,42.17
2019-02-21T17:40:33.506Z,42.54
2019-02-21T17:43:02.918Z,42.96
2019-02-21T17:45:32.396Z,42.96
2019-02-21T17:48:01.851Z,43.52
2019-02-21T17:50:31.230Z,43.34
2019-02-21T17:53:00.682Z,43.36
2019-02-21T17:55:30.370Z,43.81
2019-02-21T17:57:59.796Z,43.63
2019-02-21T18:00:33.429Z,43.85
2019-02-21T18:03:02.908Z,43.80
2019-02-21T18:05:32.383Z,43.84
2019-02-21T18:08:01.853Z,43.90
2019-02-21T18:10:32.412Z,44.41
2019-02-21T18:13:01.933Z,44.41
2019-02-21T18:15:31.399Z,44.59
2019-02-21T18:18:00.920Z,44.84
2019-02-21T18:20:30.355Z,45.01
2019-02-21T18:22:59.778Z,45.18
2019-02-21T18:25:32.728Z,45.06
2019-02-21T18:28:02.345Z,45.27
2019-02-21T18:30:31.931Z,45.42
2019-02-21T18:33:01.481Z,45.53
2019-02-21T18:35:31.242Z,45.97
2019-02-21T18:38:00.674Z,46.06
2019-02-21T18:40:30.261Z,46.29
2019-02-21T18:42:59.701Z,45.94
2019-02-21T18:45:29.102Z,45.97
2019-02-21T18:47:58.606Z,45.92
2019-02-21T18:50:37.742Z,46.01
2019-02-21T18:52:59.238Z,45.98
2019-02-21T18:55:28.681Z,46.34
2019-02-21T18:57:58.124Z,46.66
2019-02-21T19:00:27.831Z,46.68
2019-02-21T19:02:57.297Z,46.73
2019-02-21T19:05:35.275Z,47.20
2019-02-21T19:08:04.692Z,47.33
2019-02-21T19:10:29.220Z,47.64
2019-02-21T19:13:00.050Z,47.96
2019-02-21T19:15:29.604Z,48.06
2019-02-21T19:17:59.079Z,48.10
2019-02-21T19:20:28.685Z,48.52
2019-02-21T19:22:58.118Z,48.36
2019-02-21T19:25:27.683Z,48.23
2019-02-21T19:27:57.150Z,48.20
2019-02-21T19:30:29.921Z,48.27
2019-02-21T19:32:59.481Z,48.33
2019-02-21T19:35:28.972Z,48.22
2019-02-21T19:38:09.547Z,48.19
2019-02-21T19:40:29.720Z,47.95
2019-02-21T19:42:59.681Z,47.80
2019-02-21T19:45:29.255Z,47.33
2019-02-21T19:47:58.757Z,47.23
2019-02-21T19:50:28.232Z,47.02
2019-02-21T19:52:57.737Z,47.08
2019-02-21T19:55:27.258Z,47.21
2019-02-21T19:57:56.674Z,47.75
2019-02-21T20:00:26.845Z,47.62
2019-02-21T20:02:56.147Z,47.83
2019-02-21T20:05:25.789Z,47.86
2019-02-21T20:07:55.347Z,48.13
2019-02-21T20:10:24.898Z,48.15
2019-02-21T20:12:54.763Z,48.22
2019-02-21T20:15:25.213Z,48.64
2019-02-21T20:17:54.695Z,48.87
2019-02-21T20:20:24.209Z,49.18
2019-02-21T20:22:53.622Z,49.24
2019-02-21T20:25:23.368Z,49.12
2019-02-21T20:27:52.803Z,49.62
2019-02-21T20:30:22.278Z,49.58
2019-02-21T20:32:51.758Z,49.48
2019-02-21T20:35:21.150Z,49.62
2019-02-21T20:37:50.628Z,49.50
2019-02-21T20:40:20.142Z,49.62
2019-02-21T20:42:49.674Z,50.01
2019-02-21T20:45:19.174Z,49.74
2019-02-21T20:47:48.907Z,49.42
2019-02-21T20:50:18.688Z,49.72
2019-02-21T20:52:48.117Z,50.00
2019-02-21T20:55:17.570Z,50.06
2019-02-21T20:57:47.104Z,49.98
2019-02-21T21:00:18.354Z,49.70
2019-02-21T21:02:47.958Z,49.52
2019-02-21T21:05:17.442Z,49.42
2019-02-21T21:07:46.949Z,49.30
2019-02-21T21:10:16.972Z,48.88
2019-02-21T21:12:46.463Z,48.44
2019-02-21T21:15:16.071Z,48.45
2019-02-21T21:17:45.878Z,48.32
2019-02-21T21:20:16.809Z,48.31
2019-02-21T21:22:46.426Z,48.77
2019-02-21T21:25:16.358Z,48.58
2019-02-21T21:27:45.787Z,48.63
2019-02-21T21:30:15.555Z,48.83
2019-02-21T21:32:45.049Z,48.71
2019-02-21T21:35:14.726Z,48.83
2019-02-21T21:37:44.350Z,48.60
2019-02-21T21:40:14.556Z,48.20
2019-02-21T21:42:44.077Z,48.34
2019-02-21T21:45:15.746Z,48.33
2019-02-21T21:47:45.457Z,48.43
2019-02-21T21:50:16.558Z,48.74
2019-02-21T21:52:45.983Z,49.06
2019-02-21T21:55:15.629Z,49.51
2019-02-21T21:57:45.097Z,49.68
2019-02-21T22:00:19.721Z,49.77
2019-02-21T22:02:49.145Z,50.03
2019-02-21T22:05:18.547Z,49.65
2019-02-21T22:07:49.410Z,49.94
2019-02-21T22:10:19.290Z,50.28
2019-02-21T22:12:48.800Z,50.02
2019-02-21T22:15:18.581Z,50.20
2019-02-21T22:17:48.024Z,50.28
2019-02-21T22:20:18.105Z,49.87
2019-02-21T22:22:47.571Z,49.96
2019-02-21T22:25:17.159Z,49.83
2019-02-21T22:27:46.564Z,49.62
2019-02-21T22:30:16.832Z,49.95
2019-02-21T22:32:46.263Z,50.06
2019-02-21T22:35:15.839Z,50.49
2019-02-21T22:37:45.354Z,51.10
2019-02-21T22:40:15.010Z,51.39
2019-02-21T22:42:44.471Z,51.59
2019-02-21T22:45:14.317Z,51.92
2019-02-21T22:47:43.848Z,52.19
2019-02-21T22:50:14.474Z,52.58
2019-02-21T22:52:44.169Z,53.04
2019-02-21T22:55:13.876Z,53.31
2019-02-21T22:57:43.318Z,53.47
2019-02-21T23:01:05.217Z,53.56
2019-02-21T23:03:49.692Z,53.65
2019-02-21T23:06:52.722Z,53.90
2019-02-21T23:09:27.447Z,53.98
2019-02-21T23:11:55.692Z,53.95
2019-02-21T23:14:25.178Z,54.12
2019-02-21T23:16:54.554Z,54.10
2019-02-21T23:19:24.259Z,54.24
2019-02-21T23:21:53.818Z,54.33
2019-02-21T23:24:23.257Z,54.52
2019-02-21T23:26:52.802Z,54.70
2019-02-21T23:29:22.234Z,54.52
2019-02-21T23:31:51.706Z,54.58
2019-02-21T23:34:29.079Z,54.54
2019-02-21T23:36:58.464Z,54.65
2019-02-21T23:39:37.526Z,54.85
2019-02-21T23:41:59.126Z,54.99
2019-02-21T23:44:28.569Z,55.29
2019-02-21T23:46:58.046Z,55.87
2019-02-21T23:49:27.539Z,56.19
2019-02-21T23:51:56.943Z,56.30
2019-02-21T23:54:26.380Z,56.47
2019-02-21T23:56:55.894Z,56.65
2019-02-21T23:59:25.328Z,56.81
